KASH/ASH METAR and TAF weather

Enter ICAO airport designator
Station Type Date Time Source
KASH METAR 2018/04/20 07:56 UTC NOAA

KASH 200756Z AUTO 30010KT 10SM SCT090 02/M02 A2988 RMK AO2 SLP128 T00221022


Station Type Date Time Source
KASH Decoded METAR 2018/04/20 07:56 UTC NOAA

Nashua, Boire Field Airport, NH, United States (KASH) 42-46-54N 071-30-53W
Apr 20, 2018 - 03:56 AM EDT / 2018.04.20 0756 UTC
Wind: from the WNW (300 degrees) at 12 MPH (10 KT):0
Visibility: 10 mile(s):0
Sky conditions: partly cloudy
Temperature: 36.0 F (2.2 C)
Dew Point: 28.0 F (-2.2 C)
Relative Humidity: 72%
Pressure (altimeter): 29.88 in. Hg (1011 hPa)
ob: KASH 200756Z AUTO 30010KT 10SM SCT090 02/M02 A2988 RMK AO2 SLP128 T00221022
cycle: 8

Station Type Date Time Source
KASH TAF UTC NOAA

Error!


Example: see airport list